地図

経路データ

SID SEASON NUMBER BASIN SUBBASIN NAME ISO_TIME NATURE LAT LON WMO_WIND WMO_PRES WMO_AGENCY TRACK_TYPE DIST2LAND LANDFALL IFLAG USA_AGENCY USA_ATCF_ID USA_LAT USA_LON USA_RECORD USA_STATUS USA_WIND USA_PRES USA_SSHS USA_R34_NE USA_R34_SE USA_R34_SW USA_R34_NW USA_R50_NE USA_R50_SE USA_R50_SW USA_R50_NW USA_R64_NE USA_R64_SE USA_R64_SW USA_R64_NW USA_POCI USA_ROCI USA_RMW USA_EYE TOKYO_LAT TOKYO_LON TOKYO_GRADE TOKYO_WIND TOKYO_PRES TOKYO_R50_DIR TOKYO_R50_LONG TOKYO_R50_SHORT TOKYO_R30_DIR TOKYO_R30_LONG TOKYO_R30_SHORT TOKYO_LAND CMA_LAT CMA_LON CMA_CAT CMA_WIND CMA_PRES HKO_LAT HKO_LON HKO_CAT HKO_WIND HKO_PRES NEWDELHI_LAT NEWDELHI_LON NEWDELHI_GRADE NEWDELHI_WIND NEWDELHI_PRES NEWDELHI_CI NEWDELHI_DP NEWDELHI_POCI REUNION_LAT REUNION_LON REUNION_TYPE REUNION_WIND REUNION_PRES REUNION_TNUM REUNION_CI REUNION_RMW REUNION_R34_NE REUNION_R34_SE REUNION_R34_SW REUNION_R34_NW REUNION_R50_NE REUNION_R50_SE REUNION_R50_SW REUNION_R50_NW REUNION_R64_NE REUNION_R64_SE REUNION_R64_SW REUNION_R64_NW BOM_LAT BOM_LON BOM_TYPE BOM_WIND BOM_PRES BOM_TNUM BOM_CI BOM_RMW BOM_R34_NE BOM_R34_SE BOM_R34_SW BOM_R34_NW BOM_R50_NE BOM_R50_SE BOM_R50_SW BOM_R50_NW BOM_R64_NE BOM_R64_SE BOM_R64_SW BOM_R64_NW BOM_ROCI BOM_POCI BOM_EYE BOM_POS_METHOD BOM_PRES_METHOD NADI_LAT NADI_LON NADI_CAT NADI_WIND NADI_PRES WELLINGTON_LAT WELLINGTON_LON WELLINGTON_WIND WELLINGTON_PRES DS824_LAT DS824_LON DS824_STAGE DS824_WIND DS824_PRES TD9636_LAT TD9636_LON TD9636_STAGE TD9636_WIND TD9636_PRES TD9635_LAT TD9635_LON TD9635_WIND TD9635_PRES TD9635_ROCI NEUMANN_LAT NEUMANN_LON NEUMANN_CLASS NEUMANN_WIND NEUMANN_PRES MLC_LAT MLC_LON MLC_CLASS MLC_WIND MLC_PRES USA_GUST BOM_GUST BOM_GUST_PER REUNION_GUST REUNION_GUST_PER USA_SEAHGT USA_SEARAD_NE USA_SEARAD_SE USA_SEARAD_SW USA_SEARAD_NW STORM_SPEED STORM_DIR
1964090S14072 1964 25 SI MM INGRID 1964-03-29 12:00:00 TS -14.0000 72.2000 main 1683 1678 ____________O_ -1 -14.0000 72.2000 TC 30 2 212
1964090S14072 1964 25 SI MM INGRID 1964-03-29 15:00:00 TS -14.0950 72.1500 main 1678 1664 ____________P_ -1 -14.0950 72.1500 TC 30 2 207
1964090S14072 1964 25 SI MM INGRID 1964-03-29 18:00:00 TS -14.2000 72.1000 main 1664 1659 ____________O_ -1 -14.2000 72.1000 TC 30 3 203
1964090S14072 1964 25 SI MM INGRID 1964-03-29 21:00:00 TS -14.3275 72.0500 main 1659 1639 ____________P_ -1 -14.3275 72.0500 TC 32 3 197
1964090S14072 1964 25 SI MM INGRID 1964-03-30 00:00:00 TS -14.5000 72.0000 main 1639 1625 ____________O_ -1 -14.5000 72.0000 TC 35 4 191
1964090S14072 1964 25 SI MM INGRID 1964-03-30 03:00:00 TS -14.7575 71.9575 main 1625 1568 ____________P_ -1 -14.7575 71.9575 TC 37 11 296
1964090S14072 1964 25 SI MM INGRID 1964-03-30 06:00:00 TS -14.0143 70.9571 main 1568 1536 O________OO_O_ jtwc_sh SH301964 -12.7000 69.7000 -1 -12.7000 69.7000 TC 25 -12.7000 69.7000 7 -15.0000 71.9000 TC 40 16 303
1964090S14072 1964 25 SI MM INGRID 1964-03-30 09:00:00 TS -13.9047 70.6034 main 1536 1512 P________PP_P_ SH301964 -13.1100 69.7375 -1 -13.1100 69.7375 TC 25 -13.0890 69.7625 7 -15.1072 71.8898 TC 40 5 270
1964090S14072 1964 25 SI MM INGRID 1964-03-30 12:00:00 TS -14.0167 70.3916 main 1512 1482 O________OP_O_ jtwc_sh SH301964 -13.5000 69.8000 -1 -13.5000 69.8000 TC 25 -13.4725 69.8301 7 -15.2000 71.7000 TC 40 5 232
1964090S14072 1964 25 SI MM INGRID 1964-03-30 15:00:00 TS -14.2364 70.1708 main 1482 1456 P________PP_P_ SH301964 -13.8575 69.9000 -1 -13.8575 69.9000 TC 30 -13.8447 69.9077 7 -15.3859 70.9756 TC 42 6 208
1964090S14072 1964 25 SI MM INGRID 1964-03-30 18:00:00 TS -14.5500 70.1000 main 1456 1446 O________OO_O_ jtwc_sh SH301964 -14.2000 70.0000 -1 -14.2000 70.0000 TC 35 -14.2000 70.0000 2 -15.6000 70.4000 TC 45 6 175
1964090S14072 1964 25 SI MM INGRID 1964-03-30 21:00:00 TS -14.8574 70.2292 main 1445 1445 P________PP_P_ SH301964 -14.5500 70.0501 -1 -14.5500 70.0501 TC 35 -14.5369 70.1072 2 -15.7927 70.7094 TC 47 7 155
1964090S14072 1964 25 SI MM INGRID 1964-03-31 00:00:00 TS -15.1675 70.4024 main 1450 1446 O________OP_O_ jtwc_sh SH301964 -14.9000 70.1000 -1 -14.9000 70.1000 TC 35 -14.8700 70.2094 2 -16.0000 71.2000 TC 50 7 158
1964090S14072 1964 25 SI MM INGRID 1964-03-31 03:00:00 TS -15.4864 70.4861 main 1446 1433 P________PP_P_ SH301964 -15.2425 70.2223 -1 -15.2425 70.2223 TC 35 -15.2181 70.2820 2 -16.2424 71.2177 TC 55 7 172
1964090S14072 1964 25 SI MM INGRID 1964-03-31 06:00:00 TS -15.8250 70.5000 main 1433 1406 O________OO_O_ jtwc_sh SH301964 -15.6000 70.3000 -1 -15.6000 70.3000 TC 35 -15.6000 70.3000 2 -16.5000 71.1000 TC 60 7 183
1964090S14072 1964 25 SI MM INGRID 1964-03-31 09:00:00 TS -16.1706 70.4437 main 1406 1385 P________PP_P_ SH301964 -15.9700 70.2375 -1 -15.9700 70.2375 TC 35 -16.0149 70.2050 2 -16.7274 71.0947 TC 62 8 194
1964090S14072 1964 25 SI MM INGRID 1964-03-31 12:00:00 TS -16.5669 70.3147 main 1381 1347 O________OP_O_ jtwc_sh SH301964 -16.4000 70.1000 -1 -16.4000 70.1000 TC 35 -16.4678 70.0589 2 -17.0000 71.0000 TC 65 9 200
1964090S14072 1964 25 SI MM INGRID 1964-03-31 15:00:00 TS -17.0412 70.1054 main 1347 1310 P________PP_P_ SH301964 -16.9200 69.9278 -1 -16.9200 69.9278 TC 35 -16.9618 69.9082 2 -17.3628 70.6579 TC 65 11 200
1964090S14072 1964 25 SI MM INGRID 1964-03-31 18:00:00 TS -17.5750 69.9250 main 1307 1293 O________OO_O_ jtwc_sh SH301964 -17.5000 69.8000 -1 -17.5000 69.8000 TC 35 -17.5000 69.8000 2 -17.8000 70.3000 TC 65 11 190
1964090S14072 1964 25 SI MM INGRID 1964-03-31 21:00:00 TS -18.1267 69.8964 main 1293 1280 P________PP_P_ SH301964 -18.0850 69.8198 -1 -18.0850 69.8198 TC 35 -18.0819 69.7912 2 -18.2549 70.1547 TC 62 12 179
1964090S14072 1964 25 SI MM INGRID 1964-04-01 00:00:00 TS -18.7263 69.9330 main 1280 1270 O________OP_O_ jtwc_sh SH301964 -18.7000 69.9000 -1 -18.7000 69.9000 TC 35 -18.7050 69.8321 2 -18.8000 70.1000 TC 60 13 177
1964090S14072 1964 25 SI MM INGRID 1964-04-01 03:00:00 TS -19.3745 69.9531 main 1279 1273 P________PP_P_ SH301964 -19.3500 69.9426 -1 -19.3500 69.9426 TC 50 -19.3507 69.9070 2 -19.4475 70.0202 TC 57 13 177
1964090S14072 1964 25 SI MM INGRID 1964-04-01 06:00:00 TS -20.0500 70.0000 main 1273 1271 O________OO_O_ jtwc_sh SH301964 -20.0000 70.0000 -1 -20.0000 70.0000 TC 65 -20.0000 70.0000 4 -20.2000 70.0000 TC 55 14 174
1964090S14072 1964 25 SI MM INGRID 1964-04-01 09:00:00 TS -20.7174 70.0897 main 1281 1281 P________PP_P_ SH301964 -20.6000 70.0925 -1 -20.6000 70.0925 TC 65 -20.6047 70.0818 4 -21.0650 70.0919 TC 52 13 172
1964090S14072 1964 25 SI MM INGRID 1964-04-01 12:00:00 TS -21.3781 70.1945 main 1293 1293 O________OP_O_ jtwc_sh SH301964 -21.2000 70.2000 -1 -21.2000 70.2000 TC 65 -21.2126 70.1779 4 -21.9000 70.2000 TC 50 13 173
1964090S14072 1964 25 SI MM INGRID 1964-04-01 15:00:00 TS -22.0041 70.2641 main 1309 1309 P________PP_P_ SH301964 -21.8350 70.3001 -1 -21.8350 70.3001 TC 65 -21.8391 70.2851 4 -22.5074 70.1710 TC 47 13 174
1964090S14072 1964 25 SI MM INGRID 1964-04-01 18:00:00 TS -22.6500 70.3500 main 1328 1318 O________OO_O_ jtwc_sh SH301964 -22.5000 70.4000 -1 -22.5000 70.4000 TC 65 -22.5000 70.4000 4 -23.1000 70.2000 TC 45 14 171
1964090S14072 1964 25 SI MM INGRID 1964-04-01 21:00:00 TS -23.3609 70.4884 main 1354 1354 P________PP_P_ SH301964 -23.1775 70.4928 -1 -23.1775 70.4928 TC 65 -23.1735 70.4990 4 -23.9152 70.4690 TC 42 15 169
1964090S14072 1964 25 SI MM INGRID 1964-04-02 00:00:00 TS -24.0969 70.6519 main 1393 1393 O________OP_O_ jtwc_sh SH301964 -23.9000 70.6000 -1 -23.9000 70.6000 TC 65 -23.8876 70.6075 4 -24.7000 70.8000 TC 40 15 169
1964090S14072 1964 25 SI MM INGRID 1964-04-02 03:00:00 TS -24.8088 70.7966 main 1425 1425 P________PP_P_ SH301964 -24.6550 70.7280 -1 -24.6550 70.7280 TC 65 -24.6579 70.7371 4 -25.2673 70.9932 TC 40 15 169
1964090S14072 1964 25 SI MM INGRID 1964-04-02 06:00:00 TS -25.5500 70.9750 main 1469 1473 O________OO_O_ jtwc_sh SH301964 -25.5000 70.9000 -1 -25.5000 70.9000 TC 65 -25.5000 70.9000 4 -25.7000 71.2000 TC 40 16 166
1964090S14072 1964 25 SI MM INGRID 1964-04-02 09:00:00 TS -26.3473 71.2113 main 1520 1520 P________PP_P_ SH301964 -26.4701 71.1349 -1 -26.4701 71.1349 TC 65 -26.4446 71.1132 4 -26.0044 71.4620 TC 35 17 164
1964090S14072 1964 25 SI MM INGRID 1964-04-02 12:00:00 MX -27.2138 71.5154 main 1588 1588 O________OP_O_ jtwc_sh SH301964 -27.5000 71.4000 -1 -27.5000 71.4000 TC 65 -27.4554 71.3615 4 -26.4000 71.9000 EX 30 19 162
1964090S14072 1964 25 SI MM INGRID 1964-04-02 15:00:00 MX -28.1471 71.8599 main 1668 1668 P________PP_P_ SH301964 -28.5149 71.6504 -1 -28.5149 71.6504 TC 65 -28.4885 71.6292 4 -27.0702 72.5096 EX 30 20 160
1964090S14072 1964 25 SI MM INGRID 1964-04-02 18:00:00 MX -29.1250 72.3000 main 1755 1755 O________OO_O_ jtwc_sh SH301964 -29.5000 71.9000 -1 -29.5000 71.9000 TC 65 -29.5000 71.9000 4 -28.0000 73.5000 EX 30 22 156
1964090S14072 1964 25 SI MM INGRID 1964-04-02 21:00:00 MX -30.1081 72.8489 main 1854 1854 P________PP_P_ SH301964 -30.4149 72.1506 -1 -30.4149 72.1506 TC 50 -30.4565 72.1602 4 -29.1459 74.9341 EX 30 23 147
1964090S14072 1964 25 SI MM INGRID 1964-04-03 00:00:00 MX -31.0380 73.7563 main 1988 1948 O________OP_O_ jtwc_sh SH301964 -31.3000 72.4000 -1 -31.3000 72.4000 TC 35 -31.3646 72.4105 4 -30.4000 76.8000 EX 30 27 133
1964090S14072 1964 25 SI MM INGRID 1964-04-03 03:00:00 MX -31.9482 75.1559 main 1950 1884 P________PP_P_ SH301964 -32.1951 72.6489 -1 -32.1951 72.6489 TC 30 -32.2405 72.6554 4 -31.5552 78.9131 EX 30 34 123
1964090S14072 1964 25 SI MM INGRID 1964-04-03 06:00:00 MX -32.9000 77.1000 main 1883 1879 O________OO_O_ jtwc_sh SH301964 -33.1000 72.9000 -1 -33.1000 72.9000 TC 25 -33.1000 72.9000 7 -32.7000 81.3000 EX 30 75 105
1964090S14072 1964 25 SI MM INGRID 1964-04-03 09:00:00 ET -33.8582 83.8445 main 2012 2012 ____________P_ SH301964 -1 TC 7 -33.8582 83.8445 EX 27 81 105
1964090S14072 1964 25 SI MM INGRID 1964-04-03 12:00:00 ET -35.0000 86.5000 main 2038 ____________O_ -1 7 -35.0000 86.5000 EX 25 49 118

IBTrACS Databaseについて

本データベースは、米国NOAAが公開する1842年以降の世界の熱帯低気圧のベストトラックデータアーカイブInternational Best Track Archive for Climate Stewardship (IBTrACS)を、ウェブで閲覧しやすい形式に変換したものです。

最終更新日:2021-11-26